sensor_id;sensor_type;location;lat;lon;timestamp;P1;durP1;ratioP1;P2;durP2;ratioP2
36241;SDS011;22283;42.748;12.732;2023-08-31T00:00:41;10.48;;;2.38;;
36241;SDS011;22283;42.748;12.732;2023-08-31T00:10:43;10.70;;;2.90;;
36241;SDS011;22283;42.748;12.732;2023-08-31T00:15:45;14.00;;;3.28;;
36241;SDS011;22283;42.748;12.732;2023-08-31T00:20:46;14.27;;;3.30;;
36241;SDS011;22283;42.748;12.732;2023-08-31T00:25:47;11.23;;;3.00;;
36241;SDS011;22283;42.748;12.732;2023-08-31T00:30:48;13.85;;;2.80;;
36241;SDS011;22283;42.748;12.732;2023-08-31T00:35:49;11.90;;;4.23;;
36241;SDS011;22283;42.748;12.732;2023-08-31T00:40:49;11.90;;;2.65;;
36241;SDS011;22283;42.748;12.732;2023-08-31T00:45:50;11.25;;;3.22;;
36241;SDS011;22283;42.748;12.732;2023-08-31T00:50:56;18.85;;;2.70;;
36241;SDS011;22283;42.748;12.732;2023-08-31T00:55:57;12.60;;;3.13;;
36241;SDS011;22283;42.748;12.732;2023-08-31T01:11:44;14.50;;;3.25;;
36241;SDS011;22283;42.748;12.732;2023-08-31T01:16:55;9.55;;;3.13;;
36241;SDS011;22283;42.748;12.732;2023-08-31T01:22:00;13.38;;;3.40;;
36241;SDS011;22283;42.748;12.732;2023-08-31T01:27:05;8.90;;;3.63;;
36241;SDS011;22283;42.748;12.732;2023-08-31T01:32:06;17.67;;;2.88;;
36241;SDS011;22283;42.748;12.732;2023-08-31T01:37:10;14.85;;;2.90;;
36241;SDS011;22283;42.748;12.732;2023-08-31T01:42:16;11.40;;;2.45;;
36241;SDS011;22283;42.748;12.732;2023-08-31T01:47:17;9.27;;;3.10;;
36241;SDS011;22283;42.748;12.732;2023-08-31T01:52:19;14.10;;;3.25;;
36241;SDS011;22283;42.748;12.732;2023-08-31T01:57:20;11.85;;;3.42;;
36241;SDS011;22283;42.748;12.732;2023-08-31T02:02:37;10.63;;;2.58;;
36241;SDS011;22283;42.748;12.732;2023-08-31T02:07:37;9.03;;;3.10;;
36241;SDS011;22283;42.748;12.732;2023-08-31T02:12:39;15.13;;;3.13;;
36241;SDS011;22283;42.748;12.732;2023-08-31T02:17:40;11.73;;;3.35;;
36241;SDS011;22283;42.748;12.732;2023-08-31T02:22:41;16.55;;;3.47;;
36241;SDS011;22283;42.748;12.732;2023-08-31T02:27:41;12.75;;;3.30;;
36241;SDS011;22283;42.748;12.732;2023-08-31T02:32:42;10.48;;;3.35;;
36241;SDS011;22283;42.748;12.732;2023-08-31T02:37:46;11.57;;;2.95;;
36241;SDS011;22283;42.748;12.732;2023-08-31T02:42:50;13.48;;;3.05;;
36241;SDS011;22283;42.748;12.732;2023-08-31T02:47:51;13.55;;;3.03;;
36241;SDS011;22283;42.748;12.732;2023-08-31T02:52:52;15.82;;;3.42;;
36241;SDS011;22283;42.748;12.732;2023-08-31T02:57:53;14.43;;;3.10;;
36241;SDS011;22283;42.748;12.732;2023-08-31T03:07:55;12.40;;;2.88;;
36241;SDS011;22283;42.748;12.732;2023-08-31T03:12:57;14.52;;;3.45;;
36241;SDS011;22283;42.748;12.732;2023-08-31T03:17:58;14.30;;;3.17;;
36241;SDS011;22283;42.748;12.732;2023-08-31T03:22:58;15.33;;;3.73;;
36241;SDS011;22283;42.748;12.732;2023-08-31T03:27:59;16.63;;;4.18;;
36241;SDS011;22283;42.748;12.732;2023-08-31T03:33:00;14.90;;;3.40;;
36241;SDS011;22283;42.748;12.732;2023-08-31T03:38:01;11.77;;;3.47;;
36241;SDS011;22283;42.748;12.732;2023-08-31T03:43:02;18.48;;;3.22;;
36241;SDS011;22283;42.748;12.732;2023-08-31T03:53:04;12.65;;;3.63;;
36241;SDS011;22283;42.748;12.732;2023-08-31T03:58:05;11.80;;;3.20;;
36241;SDS011;22283;42.748;12.732;2023-08-31T04:03:06;15.47;;;3.33;;
36241;SDS011;22283;42.748;12.732;2023-08-31T04:08:06;19.90;;;3.53;;
36241;SDS011;22283;42.748;12.732;2023-08-31T04:13:09;17.60;;;3.72;;
36241;SDS011;22283;42.748;12.732;2023-08-31T04:18:09;13.10;;;3.00;;
36241;SDS011;22283;42.748;12.732;2023-08-31T04:23:10;13.17;;;3.20;;
36241;SDS011;22283;42.748;12.732;2023-08-31T04:28:10;11.83;;;2.83;;
36241;SDS011;22283;42.748;12.732;2023-08-31T04:33:11;12.60;;;3.33;;
36241;SDS011;22283;42.748;12.732;2023-08-31T04:38:12;8.93;;;2.63;;
36241;SDS011;22283;42.748;12.732;2023-08-31T04:43:12;8.77;;;2.97;;
36241;SDS011;22283;42.748;12.732;2023-08-31T04:48:13;10.07;;;2.43;;
36241;SDS011;22283;42.748;12.732;2023-08-31T04:53:16;16.83;;;3.47;;
36241;SDS011;22283;42.748;12.732;2023-08-31T04:58:16;15.83;;;3.07;;
36241;SDS011;22283;42.748;12.732;2023-08-31T05:03:17;17.40;;;3.40;;
36241;SDS011;22283;42.748;12.732;2023-08-31T05:08:18;16.43;;;3.33;;
36241;SDS011;22283;42.748;12.732;2023-08-31T05:13:19;15.47;;;3.70;;
36241;SDS011;22283;42.748;12.732;2023-08-31T05:18:19;19.90;;;4.10;;
36241;SDS011;22283;42.748;12.732;2023-08-31T05:23:20;14.50;;;3.60;;
36241;SDS011;22283;42.748;12.732;2023-08-31T05:28:20;10.00;;;2.80;;
36241;SDS011;22283;42.748;12.732;2023-08-31T05:33:21;16.17;;;2.95;;
36241;SDS011;22283;42.748;12.732;2023-08-31T05:38:22;20.73;;;3.50;;
36241;SDS011;22283;42.748;12.732;2023-08-31T05:43:23;19.23;;;4.05;;
36241;SDS011;22283;42.748;12.732;2023-08-31T05:48:24;14.13;;;3.85;;
36241;SDS011;22283;42.748;12.732;2023-08-31T05:53:25;11.18;;;3.92;;
36241;SDS011;22283;42.748;12.732;2023-08-31T05:58:25;17.88;;;3.92;;
36241;SDS011;22283;42.748;12.732;2023-08-31T06:03:26;15.75;;;3.08;;
36241;SDS011;22283;42.748;12.732;2023-08-31T06:08:28;19.73;;;3.53;;
36241;SDS011;22283;42.748;12.732;2023-08-31T06:13:29;11.45;;;2.75;;
36241;SDS011;22283;42.748;12.732;2023-08-31T06:18:30;16.92;;;4.13;;
36241;SDS011;22283;42.748;12.732;2023-08-31T06:23:31;15.18;;;3.33;;
36241;SDS011;22283;42.748;12.732;2023-08-31T06:28:32;13.70;;;3.13;;
36241;SDS011;22283;42.748;12.732;2023-08-31T06:33:32;14.82;;;3.83;;
36241;SDS011;22283;42.748;12.732;2023-08-31T06:38:33;18.75;;;5.32;;
36241;SDS011;22283;42.748;12.732;2023-08-31T06:43:34;14.05;;;3.70;;
36241;SDS011;22283;42.748;12.732;2023-08-31T06:48:35;17.77;;;4.53;;
36241;SDS011;22283;42.748;12.732;2023-08-31T06:53:36;21.58;;;5.53;;
36241;SDS011;22283;42.748;12.732;2023-08-31T06:58:37;14.35;;;2.85;;
36241;SDS011;22283;42.748;12.732;2023-08-31T07:03:38;14.32;;;3.60;;
36241;SDS011;22283;42.748;12.732;2023-08-31T07:08:39;12.25;;;2.95;;
36241;SDS011;22283;42.748;12.732;2023-08-31T07:13:41;8.93;;;3.35;;
36241;SDS011;22283;42.748;12.732;2023-08-31T07:18:42;12.00;;;3.53;;
36241;SDS011;22283;42.748;12.732;2023-08-31T07:28:43;18.83;;;3.78;;
36241;SDS011;22283;42.748;12.732;2023-08-31T07:38:44;8.25;;;2.83;;
36241;SDS011;22283;42.748;12.732;2023-08-31T07:43:45;14.75;;;3.08;;
36241;SDS011;22283;42.748;12.732;2023-08-31T07:53:49;19.08;;;3.28;;
36241;SDS011;22283;42.748;12.732;2023-08-31T07:58:50;11.95;;;3.25;;
36241;SDS011;22283;42.748;12.732;2023-08-31T08:03:50;13.55;;;3.03;;
36241;SDS011;22283;42.748;12.732;2023-08-31T08:08:51;26.90;;;4.00;;
36241;SDS011;22283;42.748;12.732;2023-08-31T08:13:51;12.88;;;2.83;;
36241;SDS011;22283;42.748;12.732;2023-08-31T08:23:53;11.73;;;2.90;;
36241;SDS011;22283;42.748;12.732;2023-08-31T08:33:54;10.05;;;2.72;;
36241;SDS011;22283;42.748;12.732;2023-08-31T08:43:55;13.57;;;3.83;;
36241;SDS011;22283;42.748;12.732;2023-08-31T08:49:00;10.95;;;3.33;;
36241;SDS011;22283;42.748;12.732;2023-08-31T08:54:04;15.88;;;4.15;;
36241;SDS011;22283;42.748;12.732;2023-08-31T08:59:05;11.18;;;3.45;;
36241;SDS011;22283;42.748;12.732;2023-08-31T09:04:05;12.77;;;3.75;;
36241;SDS011;22283;42.748;12.732;2023-08-31T09:09:10;12.82;;;4.30;;
36241;SDS011;22283;42.748;12.732;2023-08-31T09:14:19;11.80;;;4.00;;
36241;SDS011;22283;42.748;12.732;2023-08-31T09:19:21;12.35;;;3.90;;
36241;SDS011;22283;42.748;12.732;2023-08-31T09:24:28;8.75;;;3.30;;
36241;SDS011;22283;42.748;12.732;2023-08-31T09:29:30;9.43;;;3.75;;
36241;SDS011;22283;42.748;12.732;2023-08-31T09:34:34;9.98;;;3.00;;
36241;SDS011;22283;42.748;12.732;2023-08-31T09:39:37;14.35;;;3.00;;
36241;SDS011;22283;42.748;12.732;2023-08-31T09:44:42;7.43;;;2.83;;
36241;SDS011;22283;42.748;12.732;2023-08-31T09:49:43;10.77;;;2.92;;
36241;SDS011;22283;42.748;12.732;2023-08-31T09:54:45;10.98;;;2.88;;
36241;SDS011;22283;42.748;12.732;2023-08-31T09:59:48;8.88;;;2.65;;
36241;SDS011;22283;42.748;12.732;2023-08-31T10:04:49;11.45;;;2.70;;
36241;SDS011;22283;42.748;12.732;2023-08-31T10:09:52;5.28;;;2.20;;
36241;SDS011;22283;42.748;12.732;2023-08-31T10:14:54;6.78;;;2.60;;
36241;SDS011;22283;42.748;12.732;2023-08-31T10:19:56;8.57;;;2.70;;
36241;SDS011;22283;42.748;12.732;2023-08-31T10:25:00;7.95;;;2.28;;
36241;SDS011;22283;42.748;12.732;2023-08-31T10:35:21;6.97;;;2.20;;
36241;SDS011;22283;42.748;12.732;2023-08-31T10:40:22;8.48;;;2.22;;
36241;SDS011;22283;42.748;12.732;2023-08-31T10:45:24;8.77;;;2.10;;
36241;SDS011;22283;42.748;12.732;2023-08-31T10:50:25;5.82;;;2.17;;
36241;SDS011;22283;42.748;12.732;2023-08-31T10:55:25;8.45;;;2.22;;
36241;SDS011;22283;42.748;12.732;2023-08-31T11:00:45;6.78;;;2.38;;
36241;SDS011;22283;42.748;12.732;2023-08-31T11:05:52;9.07;;;2.38;;
36241;SDS011;22283;42.748;12.732;2023-08-31T11:10:53;7.20;;;2.05;;
36241;SDS011;22283;42.748;12.732;2023-08-31T11:15:54;4.97;;;1.50;;
36241;SDS011;22283;42.748;12.732;2023-08-31T11:20:55;5.05;;;2.00;;
36241;SDS011;22283;42.748;12.732;2023-08-31T11:25:57;4.88;;;2.10;;
36241;SDS011;22283;42.748;12.732;2023-08-31T11:30:59;4.55;;;1.73;;
36241;SDS011;22283;42.748;12.732;2023-08-31T11:36:00;4.78;;;1.75;;
36241;SDS011;22283;42.748;12.732;2023-08-31T11:41:00;6.45;;;1.70;;
36241;SDS011;22283;42.748;12.732;2023-08-31T11:46:02;10.57;;;1.55;;
36241;SDS011;22283;42.748;12.732;2023-08-31T11:51:04;9.60;;;2.17;;
36241;SDS011;22283;42.748;12.732;2023-08-31T11:56:05;6.30;;;2.25;;
36241;SDS011;22283;42.748;12.732;2023-08-31T12:01:06;29.25;;;4.13;;
36241;SDS011;22283;42.748;12.732;2023-08-31T12:06:06;14.38;;;2.90;;
36241;SDS011;22283;42.748;12.732;2023-08-31T12:11:07;8.73;;;2.03;;
36241;SDS011;22283;42.748;12.732;2023-08-31T12:16:11;6.93;;;1.83;;
36241;SDS011;22283;42.748;12.732;2023-08-31T12:21:12;9.15;;;3.03;;
36241;SDS011;22283;42.748;12.732;2023-08-31T12:26:13;4.95;;;2.03;;
36241;SDS011;22283;42.748;12.732;2023-08-31T12:31:14;5.00;;;1.90;;
36241;SDS011;22283;42.748;12.732;2023-08-31T12:36:15;8.45;;;1.73;;
36241;SDS011;22283;42.748;12.732;2023-08-31T12:41:17;8.48;;;1.95;;
36241;SDS011;22283;42.748;12.732;2023-08-31T12:46:18;9.65;;;1.70;;
36241;SDS011;22283;42.748;12.732;2023-08-31T12:51:18;5.80;;;2.00;;
36241;SDS011;22283;42.748;12.732;2023-08-31T12:56:19;6.00;;;1.90;;
36241;SDS011;22283;42.748;12.732;2023-08-31T13:01:23;5.78;;;1.90;;
36241;SDS011;22283;42.748;12.732;2023-08-31T13:06:24;13.63;;;2.47;;
36241;SDS011;22283;42.748;12.732;2023-08-31T13:11:25;9.95;;;2.38;;
36241;SDS011;22283;42.748;12.732;2023-08-31T13:16:26;10.38;;;2.65;;
36241;SDS011;22283;42.748;12.732;2023-08-31T13:21:27;7.25;;;2.35;;
36241;SDS011;22283;42.748;12.732;2023-08-31T13:26:28;6.72;;;1.90;;
36241;SDS011;22283;42.748;12.732;2023-08-31T13:31:29;5.90;;;2.72;;
36241;SDS011;22283;42.748;12.732;2023-08-31T13:36:30;4.22;;;1.50;;
36241;SDS011;22283;42.748;12.732;2023-08-31T13:41:30;5.82;;;1.75;;
36241;SDS011;22283;42.748;12.732;2023-08-31T13:46:31;6.00;;;2.13;;
36241;SDS011;22283;42.748;12.732;2023-08-31T13:51:32;4.05;;;1.80;;
36241;SDS011;22283;42.748;12.732;2023-08-31T13:56:35;5.13;;;1.90;;
36241;SDS011;22283;42.748;12.732;2023-08-31T14:01:37;6.78;;;2.45;;
36241;SDS011;22283;42.748;12.732;2023-08-31T14:06:38;6.63;;;2.00;;
36241;SDS011;22283;42.748;12.732;2023-08-31T14:11:39;3.28;;;1.60;;
36241;SDS011;22283;42.748;12.732;2023-08-31T14:16:39;6.15;;;1.60;;
36241;SDS011;22283;42.748;12.732;2023-08-31T14:21:40;5.95;;;1.83;;
36241;SDS011;22283;42.748;12.732;2023-08-31T14:26:41;7.07;;;1.80;;
36241;SDS011;22283;42.748;12.732;2023-08-31T14:31:43;5.93;;;2.42;;
36241;SDS011;22283;42.748;12.732;2023-08-31T14:36:44;6.25;;;2.20;;
36241;SDS011;22283;42.748;12.732;2023-08-31T14:41:45;8.80;;;1.77;;
36241;SDS011;22283;42.748;12.732;2023-08-31T14:46:45;7.60;;;1.83;;
36241;SDS011;22283;42.748;12.732;2023-08-31T14:51:46;9.10;;;1.90;;
36241;SDS011;22283;42.748;12.732;2023-08-31T14:56:47;5.78;;;1.60;;
36241;SDS011;22283;42.748;12.732;2023-08-31T15:01:48;5.53;;;1.88;;
36241;SDS011;22283;42.748;12.732;2023-08-31T15:06:48;5.85;;;1.77;;
36241;SDS011;22283;42.748;12.732;2023-08-31T15:11:49;7.82;;;2.13;;
36241;SDS011;22283;42.748;12.732;2023-08-31T15:16:51;3.25;;;1.73;;
36241;SDS011;22283;42.748;12.732;2023-08-31T15:21:52;4.70;;;1.58;;
36241;SDS011;22283;42.748;12.732;2023-08-31T15:26:52;4.90;;;1.58;;
36241;SDS011;22283;42.748;12.732;2023-08-31T15:31:53;6.80;;;1.50;;
36241;SDS011;22283;42.748;12.732;2023-08-31T15:36:54;4.78;;;1.40;;
36241;SDS011;22283;42.748;12.732;2023-08-31T15:41:54;5.38;;;1.80;;
36241;SDS011;22283;42.748;12.732;2023-08-31T15:46:55;4.43;;;1.42;;
36241;SDS011;22283;42.748;12.732;2023-08-31T15:51:57;2.80;;;1.38;;
36241;SDS011;22283;42.748;12.732;2023-08-31T15:56:57;8.30;;;1.60;;
36241;SDS011;22283;42.748;12.732;2023-08-31T16:01:58;8.60;;;1.80;;
36241;SDS011;22283;42.748;12.732;2023-08-31T16:06:58;5.40;;;1.65;;
36241;SDS011;22283;42.748;12.732;2023-08-31T16:11:59;9.00;;;1.83;;
36241;SDS011;22283;42.748;12.732;2023-08-31T16:17:00;6.38;;;1.90;;
36241;SDS011;22283;42.748;12.732;2023-08-31T16:22:00;7.53;;;1.63;;
36241;SDS011;22283;42.748;12.732;2023-08-31T16:27:01;4.18;;;1.55;;
36241;SDS011;22283;42.748;12.732;2023-08-31T16:32:02;5.47;;;1.77;;
36241;SDS011;22283;42.748;12.732;2023-08-31T16:37:03;5.55;;;1.92;;
36241;SDS011;22283;42.748;12.732;2023-08-31T16:42:04;8.85;;;2.17;;
36241;SDS011;22283;42.748;12.732;2023-08-31T16:47:05;6.15;;;2.42;;
36241;SDS011;22283;42.748;12.732;2023-08-31T16:52:06;6.63;;;1.70;;
36241;SDS011;22283;42.748;12.732;2023-08-31T16:57:07;6.00;;;2.05;;
36241;SDS011;22283;42.748;12.732;2023-08-31T17:02:07;7.03;;;1.52;;
36241;SDS011;22283;42.748;12.732;2023-08-31T17:07:08;8.32;;;1.70;;
36241;SDS011;22283;42.748;12.732;2023-08-31T17:12:09;6.03;;;2.08;;
36241;SDS011;22283;42.748;12.732;2023-08-31T17:17:09;5.28;;;2.15;;
36241;SDS011;22283;42.748;12.732;2023-08-31T17:22:10;11.25;;;1.70;;
36241;SDS011;22283;42.748;12.732;2023-08-31T17:32:11;11.85;;;2.25;;
36241;SDS011;22283;42.748;12.732;2023-08-31T17:37:12;6.70;;;1.75;;
36241;SDS011;22283;42.748;12.732;2023-08-31T17:47:13;7.82;;;1.92;;
36241;SDS011;22283;42.748;12.732;2023-08-31T17:57:14;14.80;;;3.00;;
36241;SDS011;22283;42.748;12.732;2023-08-31T18:07:16;9.35;;;2.50;;
36241;SDS011;22283;42.748;12.732;2023-08-31T18:12:17;9.40;;;2.80;;
36241;SDS011;22283;42.748;12.732;2023-08-31T18:22:18;14.10;;;3.60;;
36241;SDS011;22283;42.748;12.732;2023-08-31T18:32:19;12.63;;;4.15;;
36241;SDS011;22283;42.748;12.732;2023-08-31T18:42:21;14.73;;;3.30;;
36241;SDS011;22283;42.748;12.732;2023-08-31T18:47:22;10.63;;;3.85;;
36241;SDS011;22283;42.748;12.732;2023-08-31T18:57:23;13.75;;;4.13;;
36241;SDS011;22283;42.748;12.732;2023-08-31T19:07:24;14.05;;;5.65;;
36241;SDS011;22283;42.748;12.732;2023-08-31T19:12:25;14.65;;;3.65;;
36241;SDS011;22283;42.748;12.732;2023-08-31T19:17:27;15.52;;;4.47;;
36241;SDS011;22283;42.748;12.732;2023-08-31T19:22:27;22.05;;;5.40;;
36241;SDS011;22283;42.748;12.732;2023-08-31T19:27:30;19.63;;;4.20;;
36241;SDS011;22283;42.748;12.732;2023-08-31T19:32:31;17.40;;;3.72;;
36241;SDS011;22283;42.748;12.732;2023-08-31T19:37:32;12.73;;;3.95;;
36241;SDS011;22283;42.748;12.732;2023-08-31T19:42:33;16.60;;;4.03;;
36241;SDS011;22283;42.748;12.732;2023-08-31T19:47:34;11.13;;;3.30;;
36241;SDS011;22283;42.748;12.732;2023-08-31T19:52:35;7.38;;;3.13;;
36241;SDS011;22283;42.748;12.732;2023-08-31T19:57:36;18.45;;;4.00;;
36241;SDS011;22283;42.748;12.732;2023-08-31T20:02:38;11.55;;;3.55;;
36241;SDS011;22283;42.748;12.732;2023-08-31T20:07:39;12.70;;;4.90;;
36241;SDS011;22283;42.748;12.732;2023-08-31T20:12:40;15.10;;;4.25;;
36241;SDS011;22283;42.748;12.732;2023-08-31T20:17:41;14.32;;;4.20;;
36241;SDS011;22283;42.748;12.732;2023-08-31T20:22:42;16.77;;;5.18;;
36241;SDS011;22283;42.748;12.732;2023-08-31T20:27:44;13.27;;;3.90;;
36241;SDS011;22283;42.748;12.732;2023-08-31T20:32:45;14.00;;;4.03;;
36241;SDS011;22283;42.748;12.732;2023-08-31T20:37:46;15.30;;;3.92;;
36241;SDS011;22283;42.748;12.732;2023-08-31T20:42:49;12.55;;;4.03;;
36241;SDS011;22283;42.748;12.732;2023-08-31T20:47:53;15.50;;;4.82;;
36241;SDS011;22283;42.748;12.732;2023-08-31T20:52:54;13.50;;;3.60;;
36241;SDS011;22283;42.748;12.732;2023-08-31T20:57:55;15.80;;;4.28;;
36241;SDS011;22283;42.748;12.732;2023-08-31T21:02:57;13.80;;;3.78;;
36241;SDS011;22283;42.748;12.732;2023-08-31T21:07:58;11.52;;;3.70;;
36241;SDS011;22283;42.748;12.732;2023-08-31T21:12:59;12.07;;;3.90;;
36241;SDS011;22283;42.748;12.732;2023-08-31T21:17:59;13.27;;;4.30;;
36241;SDS011;22283;42.748;12.732;2023-08-31T21:28:02;12.60;;;4.00;;
36241;SDS011;22283;42.748;12.732;2023-08-31T21:33:03;12.80;;;4.32;;
36241;SDS011;22283;42.748;12.732;2023-08-31T21:38:04;9.02;;;4.03;;
36241;SDS011;22283;42.748;12.732;2023-08-31T21:43:06;13.05;;;3.47;;
36241;SDS011;22283;42.748;12.732;2023-08-31T21:48:08;8.18;;;3.45;;
36241;SDS011;22283;42.748;12.732;2023-08-31T21:53:09;15.68;;;4.28;;
36241;SDS011;22283;42.748;12.732;2023-08-31T21:58:09;10.35;;;3.78;;
36241;SDS011;22283;42.748;12.732;2023-08-31T22:03:10;13.00;;;4.85;;
36241;SDS011;22283;42.748;12.732;2023-08-31T22:08:11;11.05;;;3.67;;
36241;SDS011;22283;42.748;12.732;2023-08-31T22:13:12;16.00;;;5.20;;
36241;SDS011;22283;42.748;12.732;2023-08-31T22:18:12;22.25;;;4.60;;
36241;SDS011;22283;42.748;12.732;2023-08-31T22:23:14;10.98;;;4.15;;
36241;SDS011;22283;42.748;12.732;2023-08-31T22:28:15;10.85;;;4.25;;
36241;SDS011;22283;42.748;12.732;2023-08-31T22:33:16;12.57;;;3.65;;
36241;SDS011;22283;42.748;12.732;2023-08-31T22:38:16;7.95;;;4.00;;
36241;SDS011;22283;42.748;12.732;2023-08-31T22:43:17;10.98;;;4.53;;
36241;SDS011;22283;42.748;12.732;2023-08-31T22:48:18;10.03;;;3.97;;
36241;SDS011;22283;42.748;12.732;2023-08-31T22:53:18;13.50;;;4.43;;
36241;SDS011;22283;42.748;12.732;2023-08-31T22:58:19;9.82;;;3.55;;
36241;SDS011;22283;42.748;12.732;2023-08-31T23:03:20;10.07;;;3.78;;
36241;SDS011;22283;42.748;12.732;2023-08-31T23:08:21;14.18;;;4.00;;
36241;SDS011;22283;42.748;12.732;2023-08-31T23:13:21;12.30;;;4.00;;
36241;SDS011;22283;42.748;12.732;2023-08-31T23:18:22;11.23;;;3.47;;
36241;SDS011;22283;42.748;12.732;2023-08-31T23:28:24;9.30;;;3.30;;
36241;SDS011;22283;42.748;12.732;2023-08-31T23:33:25;11.75;;;4.28;;
36241;SDS011;22283;42.748;12.732;2023-08-31T23:38:25;11.38;;;3.40;;
36241;SDS011;22283;42.748;12.732;2023-08-31T23:43:26;11.23;;;3.33;;
36241;SDS011;22283;42.748;12.732;2023-08-31T23:48:27;12.90;;;4.43;;
36241;SDS011;22283;42.748;12.732;2023-08-31T23:53:27;15.13;;;3.63;;
36241;SDS011;22283;42.748;12.732;2023-08-31T23:58:28;8.40;;;3.87;;
